Bettles Airport Bettles US
ICAO: PABT
IATA:
Category: Medium
Scheduled Services:

Elevation: 647 ft
TransAlt. 18000 ft.

Airport Communications:
ASOS:135.45
ANCHORAGE CNTR:124.6
CTAF:122.9
FAIRBANKS RDO:122.2
TWEB:116

PABT Zoom In..

If you have problems with the map follow the link
https://www.worldairports.se/pages/airport.php?
ICAO=PABT

Runways:

(A) RW 01 length 5190 ft width 150 ft
LOC 108.70 / hdg 12

(B) RW 19 length 5190 ft width 150 ft
LOC 108.70 / hdg 192

Location; PABT
Day. 22 / Time. 11.04 Zulu
* Altimeter: 29.59
* Temperature: -01° c. -30.2°f.
* Wind from: 000° Speed 00 kn.
Dewpoint: -02° c.
Visibility: 3 Statute Miles.
Clouds: Overcast 1500 ft.
Conditions: Light Snow.Conditions: Mist.

PABT 221104Z 00000KT 3SM -SN BR OVC015 M01/M02 A2959 RMK AO2 T10111017 PNO $


Wind - Calm.

 
 
jpsmedia.com for Web Design worldairports.se 2018   terms of use